< < Back
Terminal Aerodrome Forecast


Current Version              Previous Versions:   1  2  3  4  5  6  7  8  9  

Terminal Aerodrome Forecast

971
FTUS42 KTAE 180500
TAFABY
TAF
KABY 180520Z 1806/1906 00000KT P6SM FEW060
      TEMPO 1810/1812 5SM BR
     FM181400 03005KT P6SM SKC
     FM190300 00000KT P6SM SKC=

Latest METAR

044
SAUS70 KWBC 180900 RRA
MTRABY
METAR KABY 180853Z 34005KT 10SM CLR 21/20 A2990 RMK AO2 SLP123 T02110200
58006


USA.gov is the U.S. government's official web portal to all federal, state and local government web resources and services.